sensor_id;sensor_type;location;lat;lon;timestamp;P1;durP1;ratioP1;P2;durP2;ratioP2
45650;SDS011;31365;48.858;8.530;2022-08-30T00:00:12;4.22;;;3.92;;
45650;SDS011;31365;48.858;8.530;2022-08-30T00:03:04;4.72;;;3.53;;
45650;SDS011;31365;48.858;8.530;2022-08-30T00:05:35;5.93;;;4.18;;
45650;SDS011;31365;48.858;8.530;2022-08-30T00:08:04;3.80;;;3.50;;
45650;SDS011;31365;48.858;8.530;2022-08-30T00:10:33;4.03;;;3.63;;
45650;SDS011;31365;48.858;8.530;2022-08-30T00:13:02;3.80;;;3.50;;
45650;SDS011;31365;48.858;8.530;2022-08-30T00:15:31;4.00;;;3.67;;
45650;SDS011;31365;48.858;8.530;2022-08-30T00:18:00;4.38;;;3.78;;
45650;SDS011;31365;48.858;8.530;2022-08-30T00:20:31;5.93;;;4.07;;
45650;SDS011;31365;48.858;8.530;2022-08-30T00:23:01;4.50;;;4.10;;
45650;SDS011;31365;48.858;8.530;2022-08-30T00:25:31;4.78;;;4.28;;
45650;SDS011;31365;48.858;8.530;2022-08-30T00:28:00;4.78;;;3.88;;
45650;SDS011;31365;48.858;8.530;2022-08-30T00:30:30;3.88;;;3.58;;
45650;SDS011;31365;48.858;8.530;2022-08-30T00:32:58;6.00;;;4.63;;
45650;SDS011;31365;48.858;8.530;2022-08-30T00:35:27;3.92;;;3.53;;
45650;SDS011;31365;48.858;8.530;2022-08-30T00:37:57;8.07;;;4.20;;
45650;SDS011;31365;48.858;8.530;2022-08-30T00:40:25;5.32;;;4.03;;
45650;SDS011;31365;48.858;8.530;2022-08-30T00:42:55;4.68;;;4.28;;
45650;SDS011;31365;48.858;8.530;2022-08-30T00:45:32;5.93;;;4.10;;
45650;SDS011;31365;48.858;8.530;2022-08-30T00:48:03;4.47;;;4.07;;
45650;SDS011;31365;48.858;8.530;2022-08-30T00:50:34;5.30;;;4.80;;
45650;SDS011;31365;48.858;8.530;2022-08-30T00:53:08;4.88;;;4.28;;
45650;SDS011;31365;48.858;8.530;2022-08-30T00:55:43;5.55;;;4.03;;
45650;SDS011;31365;48.858;8.530;2022-08-30T00:58:13;4.43;;;4.03;;
45650;SDS011;31365;48.858;8.530;2022-08-30T01:03:39;4.88;;;4.30;;
45650;SDS011;31365;48.858;8.530;2022-08-30T01:06:10;7.70;;;4.20;;
45650;SDS011;31365;48.858;8.530;2022-08-30T01:08:41;7.55;;;4.88;;
45650;SDS011;31365;48.858;8.530;2022-08-30T01:11:11;4.30;;;3.75;;
45650;SDS011;31365;48.858;8.530;2022-08-30T01:13:44;5.20;;;4.00;;
45650;SDS011;31365;48.858;8.530;2022-08-30T01:16:14;4.47;;;3.88;;
45650;SDS011;31365;48.858;8.530;2022-08-30T01:18:44;6.53;;;4.47;;
45650;SDS011;31365;48.858;8.530;2022-08-30T01:21:15;5.20;;;4.28;;
45650;SDS011;31365;48.858;8.530;2022-08-30T01:23:53;5.65;;;4.50;;
45650;SDS011;31365;48.858;8.530;2022-08-30T01:26:26;5.25;;;4.53;;
45650;SDS011;31365;48.858;8.530;2022-08-30T01:28:57;4.90;;;4.38;;
45650;SDS011;31365;48.858;8.530;2022-08-30T01:31:33;5.55;;;4.88;;
45650;SDS011;31365;48.858;8.530;2022-08-30T01:34:02;5.60;;;4.15;;
45650;SDS011;31365;48.858;8.530;2022-08-30T01:36:33;4.80;;;4.40;;
45650;SDS011;31365;48.858;8.530;2022-08-30T01:39:12;6.68;;;4.43;;
45650;SDS011;31365;48.858;8.530;2022-08-30T01:41:43;4.55;;;4.15;;
45650;SDS011;31365;48.858;8.530;2022-08-30T01:44:12;4.20;;;3.80;;
45650;SDS011;31365;48.858;8.530;2022-08-30T01:46:43;5.93;;;3.93;;
45650;SDS011;31365;48.858;8.530;2022-08-30T01:49:16;4.80;;;4.25;;
45650;SDS011;31365;48.858;8.530;2022-08-30T01:51:52;6.07;;;4.03;;
45650;SDS011;31365;48.858;8.530;2022-08-30T01:54:28;4.30;;;3.90;;
45650;SDS011;31365;48.858;8.530;2022-08-30T01:57:04;4.65;;;3.90;;
45650;SDS011;31365;48.858;8.530;2022-08-30T01:59:33;4.25;;;3.65;;
45650;SDS011;31365;48.858;8.530;2022-08-30T02:02:03;4.88;;;4.20;;
45650;SDS011;31365;48.858;8.530;2022-08-30T02:04:33;7.03;;;4.65;;
45650;SDS011;31365;48.858;8.530;2022-08-30T02:07:03;4.38;;;3.97;;
45650;SDS011;31365;48.858;8.530;2022-08-30T02:09:33;5.72;;;3.90;;
45650;SDS011;31365;48.858;8.530;2022-08-30T02:12:03;6.80;;;4.45;;
45650;SDS011;31365;48.858;8.530;2022-08-30T02:14:33;5.47;;;4.05;;
45650;SDS011;31365;48.858;8.530;2022-08-30T02:17:03;4.57;;;4.18;;
45650;SDS011;31365;48.858;8.530;2022-08-30T02:19:33;6.00;;;4.30;;
45650;SDS011;31365;48.858;8.530;2022-08-30T02:22:02;4.10;;;3.70;;
45650;SDS011;31365;48.858;8.530;2022-08-30T02:24:31;4.85;;;4.35;;
45650;SDS011;31365;48.858;8.530;2022-08-30T02:27:01;4.57;;;4.17;;
45650;SDS011;31365;48.858;8.530;2022-08-30T02:29:30;5.22;;;4.60;;
45650;SDS011;31365;48.858;8.530;2022-08-30T02:31:59;7.03;;;4.60;;
45650;SDS011;31365;48.858;8.530;2022-08-30T02:34:28;7.00;;;4.53;;
45650;SDS011;31365;48.858;8.530;2022-08-30T02:36:56;4.40;;;4.00;;
45650;SDS011;31365;48.858;8.530;2022-08-30T02:39:25;5.27;;;4.37;;
45650;SDS011;31365;48.858;8.530;2022-08-30T02:41:55;7.72;;;4.40;;
45650;SDS011;31365;48.858;8.530;2022-08-30T02:44:24;4.33;;;3.93;;
45650;SDS011;31365;48.858;8.530;2022-08-30T02:46:52;6.63;;;5.00;;
45650;SDS011;31365;48.858;8.530;2022-08-30T02:49:21;5.20;;;4.70;;
45650;SDS011;31365;48.858;8.530;2022-08-30T02:51:59;5.07;;;4.30;;
45650;SDS011;31365;48.858;8.530;2022-08-30T02:54:29;4.50;;;4.10;;
45650;SDS011;31365;48.858;8.530;2022-08-30T02:57:00;5.73;;;4.60;;
45650;SDS011;31365;48.858;8.530;2022-08-30T02:59:32;4.73;;;4.33;;
45650;SDS011;31365;48.858;8.530;2022-08-30T03:02:04;5.47;;;3.67;;
45650;SDS011;31365;48.858;8.530;2022-08-30T03:04:33;6.27;;;4.43;;
45650;SDS011;31365;48.858;8.530;2022-08-30T03:07:01;7.40;;;4.67;;
45650;SDS011;31365;48.858;8.530;2022-08-30T03:09:30;5.53;;;4.22;;
45650;SDS011;31365;48.858;8.530;2022-08-30T03:11:58;6.35;;;4.38;;
45650;SDS011;31365;48.858;8.530;2022-08-30T03:14:30;8.47;;;4.30;;
45650;SDS011;31365;48.858;8.530;2022-08-30T03:16:58;6.67;;;4.50;;
45650;SDS011;31365;48.858;8.530;2022-08-30T03:19:26;5.10;;;4.35;;
45650;SDS011;31365;48.858;8.530;2022-08-30T03:21:55;5.57;;;4.93;;
45650;SDS011;31365;48.858;8.530;2022-08-30T03:24:24;4.97;;;4.47;;
45650;SDS011;31365;48.858;8.530;2022-08-30T03:26:52;7.93;;;4.70;;
45650;SDS011;31365;48.858;8.530;2022-08-30T03:29:22;4.43;;;4.03;;
45650;SDS011;31365;48.858;8.530;2022-08-30T03:31:50;5.07;;;3.90;;
45650;SDS011;31365;48.858;8.530;2022-08-30T03:34:20;8.18;;;4.70;;
45650;SDS011;31365;48.858;8.530;2022-08-30T03:36:50;7.43;;;4.77;;
45650;SDS011;31365;48.858;8.530;2022-08-30T03:39:21;4.80;;;4.30;;
45650;SDS011;31365;48.858;8.530;2022-08-30T03:41:51;5.72;;;3.90;;
45650;SDS011;31365;48.858;8.530;2022-08-30T03:44:20;5.95;;;4.88;;
45650;SDS011;31365;48.858;8.530;2022-08-30T03:46:50;7.55;;;4.78;;
45650;SDS011;31365;48.858;8.530;2022-08-30T03:49:19;6.20;;;5.22;;
45650;SDS011;31365;48.858;8.530;2022-08-30T03:51:47;4.95;;;4.45;;
45650;SDS011;31365;48.858;8.530;2022-08-30T03:54:16;7.70;;;5.00;;
45650;SDS011;31365;48.858;8.530;2022-08-30T03:56:45;6.70;;;4.53;;
45650;SDS011;31365;48.858;8.530;2022-08-30T03:59:13;6.03;;;4.47;;
45650;SDS011;31365;48.858;8.530;2022-08-30T04:01:42;6.63;;;4.40;;
45650;SDS011;31365;48.858;8.530;2022-08-30T04:04:12;6.30;;;4.72;;
45650;SDS011;31365;48.858;8.530;2022-08-30T04:06:46;12.53;;;4.53;;
45650;SDS011;31365;48.858;8.530;2022-08-30T04:09:15;4.97;;;4.47;;
45650;SDS011;31365;48.858;8.530;2022-08-30T04:11:45;6.18;;;4.50;;
45650;SDS011;31365;48.858;8.530;2022-08-30T04:14:14;7.90;;;5.53;;
45650;SDS011;31365;48.858;8.530;2022-08-30T04:16:43;8.73;;;5.87;;
45650;SDS011;31365;48.858;8.530;2022-08-30T04:19:13;5.53;;;4.88;;
45650;SDS011;31365;48.858;8.530;2022-08-30T04:21:42;8.63;;;6.15;;
45650;SDS011;31365;48.858;8.530;2022-08-30T04:24:10;6.60;;;4.80;;
45650;SDS011;31365;48.858;8.530;2022-08-30T04:26:39;9.53;;;5.57;;
45650;SDS011;31365;48.858;8.530;2022-08-30T04:29:07;7.25;;;4.70;;
45650;SDS011;31365;48.858;8.530;2022-08-30T04:31:37;7.13;;;5.30;;
45650;SDS011;31365;48.858;8.530;2022-08-30T04:34:05;5.30;;;4.80;;
45650;SDS011;31365;48.858;8.530;2022-08-30T04:36:37;5.28;;;4.78;;
45650;SDS011;31365;48.858;8.530;2022-08-30T04:39:06;5.93;;;4.78;;
45650;SDS011;31365;48.858;8.530;2022-08-30T04:41:35;7.38;;;5.30;;
45650;SDS011;31365;48.858;8.530;2022-08-30T04:44:05;5.97;;;5.18;;
45650;SDS011;31365;48.858;8.530;2022-08-30T04:46:39;7.67;;;5.10;;
45650;SDS011;31365;48.858;8.530;2022-08-30T04:49:10;5.47;;;4.80;;
45650;SDS011;31365;48.858;8.530;2022-08-30T04:51:40;6.00;;;5.37;;
45650;SDS011;31365;48.858;8.530;2022-08-30T04:54:08;7.07;;;5.25;;
45650;SDS011;31365;48.858;8.530;2022-08-30T04:56:36;6.38;;;4.80;;
45650;SDS011;31365;48.858;8.530;2022-08-30T04:59:05;5.80;;;4.20;;
45650;SDS011;31365;48.858;8.530;2022-08-30T05:01:34;6.03;;;4.65;;
45650;SDS011;31365;48.858;8.530;2022-08-30T05:04:11;7.05;;;5.20;;
45650;SDS011;31365;48.858;8.530;2022-08-30T05:06:42;6.18;;;5.35;;
45650;SDS011;31365;48.858;8.530;2022-08-30T05:09:10;5.43;;;4.93;;
45650;SDS011;31365;48.858;8.530;2022-08-30T05:11:39;5.68;;;5.18;;
45650;SDS011;31365;48.858;8.530;2022-08-30T05:14:08;6.15;;;5.15;;
45650;SDS011;31365;48.858;8.530;2022-08-30T05:16:37;6.80;;;5.25;;
45650;SDS011;31365;48.858;8.530;2022-08-30T05:19:07;5.75;;;5.07;;
45650;SDS011;31365;48.858;8.530;2022-08-30T05:21:35;6.80;;;4.60;;
45650;SDS011;31365;48.858;8.530;2022-08-30T05:24:08;6.53;;;4.90;;
45650;SDS011;31365;48.858;8.530;2022-08-30T05:26:36;6.80;;;5.30;;
45650;SDS011;31365;48.858;8.530;2022-08-30T05:29:06;5.33;;;4.23;;
45650;SDS011;31365;48.858;8.530;2022-08-30T05:31:34;7.70;;;5.10;;
45650;SDS011;31365;48.858;8.530;2022-08-30T05:34:04;5.32;;;4.78;;
45650;SDS011;31365;48.858;8.530;2022-08-30T05:36:33;6.15;;;5.30;;
45650;SDS011;31365;48.858;8.530;2022-08-30T05:39:05;5.63;;;4.45;;
45650;SDS011;31365;48.858;8.530;2022-08-30T05:41:36;5.40;;;4.95;;
45650;SDS011;31365;48.858;8.530;2022-08-30T05:44:06;8.63;;;5.13;;
45650;SDS011;31365;48.858;8.530;2022-08-30T05:46:36;6.85;;;4.78;;
45650;SDS011;31365;48.858;8.530;2022-08-30T05:49:08;5.22;;;4.72;;
45650;SDS011;31365;48.858;8.530;2022-08-30T05:51:37;4.97;;;4.55;;
45650;SDS011;31365;48.858;8.530;2022-08-30T05:54:10;5.63;;;4.88;;
45650;SDS011;31365;48.858;8.530;2022-08-30T05:56:42;5.22;;;4.82;;
45650;SDS011;31365;48.858;8.530;2022-08-30T05:59:13;4.63;;;4.23;;
45650;SDS011;31365;48.858;8.530;2022-08-30T06:01:43;5.80;;;4.72;;
45650;SDS011;31365;48.858;8.530;2022-08-30T06:04:13;6.85;;;5.15;;
45650;SDS011;31365;48.858;8.530;2022-08-30T06:06:43;5.63;;;4.53;;
45650;SDS011;31365;48.858;8.530;2022-08-30T06:09:13;6.07;;;4.63;;
45650;SDS011;31365;48.858;8.530;2022-08-30T06:11:42;11.75;;;5.55;;
45650;SDS011;31365;48.858;8.530;2022-08-30T06:14:11;5.13;;;4.65;;
45650;SDS011;31365;48.858;8.530;2022-08-30T06:16:40;6.90;;;5.45;;
45650;SDS011;31365;48.858;8.530;2022-08-30T06:19:12;9.68;;;6.03;;
45650;SDS011;31365;48.858;8.530;2022-08-30T06:21:41;6.93;;;5.22;;
45650;SDS011;31365;48.858;8.530;2022-08-30T06:24:15;6.13;;;4.80;;
45650;SDS011;31365;48.858;8.530;2022-08-30T06:26:50;6.03;;;4.57;;
45650;SDS011;31365;48.858;8.530;2022-08-30T06:29:19;6.57;;;5.13;;
45650;SDS011;31365;48.858;8.530;2022-08-30T06:31:48;5.18;;;4.57;;
45650;SDS011;31365;48.858;8.530;2022-08-30T06:34:17;5.22;;;4.72;;
45650;SDS011;31365;48.858;8.530;2022-08-30T06:36:46;5.00;;;4.55;;
45650;SDS011;31365;48.858;8.530;2022-08-30T06:39:15;6.57;;;4.63;;
45650;SDS011;31365;48.858;8.530;2022-08-30T06:41:44;6.13;;;5.35;;
45650;SDS011;31365;48.858;8.530;2022-08-30T06:44:22;4.72;;;4.32;;
45650;SDS011;31365;48.858;8.530;2022-08-30T06:46:51;5.18;;;4.57;;
45650;SDS011;31365;48.858;8.530;2022-08-30T06:49:20;6.07;;;4.55;;
45650;SDS011;31365;48.858;8.530;2022-08-30T06:51:48;5.13;;;4.63;;
45650;SDS011;31365;48.858;8.530;2022-08-30T06:54:19;5.85;;;4.78;;
45650;SDS011;31365;48.858;8.530;2022-08-30T06:56:47;6.57;;;4.93;;
45650;SDS011;31365;48.858;8.530;2022-08-30T06:59:25;7.25;;;4.57;;
45650;SDS011;31365;48.858;8.530;2022-08-30T07:01:54;4.90;;;4.43;;
45650;SDS011;31365;48.858;8.530;2022-08-30T07:04:23;6.80;;;4.90;;
45650;SDS011;31365;48.858;8.530;2022-08-30T07:06:52;5.28;;;4.88;;
45650;SDS011;31365;48.858;8.530;2022-08-30T07:09:22;5.88;;;4.55;;
45650;SDS011;31365;48.858;8.530;2022-08-30T07:11:51;5.57;;;4.55;;
45650;SDS011;31365;48.858;8.530;2022-08-30T07:14:20;5.28;;;4.78;;
45650;SDS011;31365;48.858;8.530;2022-08-30T07:16:50;5.68;;;4.72;;
45650;SDS011;31365;48.858;8.530;2022-08-30T07:19:18;5.20;;;4.70;;
45650;SDS011;31365;48.858;8.530;2022-08-30T07:21:46;5.38;;;4.88;;
45650;SDS011;31365;48.858;8.530;2022-08-30T07:24:15;5.18;;;4.60;;
45650;SDS011;31365;48.858;8.530;2022-08-30T07:26:47;4.95;;;4.50;;
45650;SDS011;31365;48.858;8.530;2022-08-30T07:29:18;6.65;;;4.57;;
45650;SDS011;31365;48.858;8.530;2022-08-30T07:31:47;5.45;;;4.03;;
45650;SDS011;31365;48.858;8.530;2022-08-30T07:34:16;5.53;;;5.00;;
45650;SDS011;31365;48.858;8.530;2022-08-30T07:36:48;5.63;;;4.68;;
45650;SDS011;31365;48.858;8.530;2022-08-30T07:39:17;5.00;;;4.28;;
45650;SDS011;31365;48.858;8.530;2022-08-30T07:41:47;5.50;;;4.90;;
45650;SDS011;31365;48.858;8.530;2022-08-30T07:44:16;4.40;;;4.10;;
45650;SDS011;31365;48.858;8.530;2022-08-30T07:46:48;7.75;;;4.45;;
45650;SDS011;31365;48.858;8.530;2022-08-30T07:49:17;6.70;;;5.00;;
45650;SDS011;31365;48.858;8.530;2022-08-30T07:51:46;4.65;;;4.22;;
45650;SDS011;31365;48.858;8.530;2022-08-30T07:54:14;4.65;;;4.25;;
45650;SDS011;31365;48.858;8.530;2022-08-30T07:56:43;5.93;;;4.35;;
45650;SDS011;31365;48.858;8.530;2022-08-30T07:59:12;6.22;;;4.32;;
45650;SDS011;31365;48.858;8.530;2022-08-30T08:01:41;5.60;;;4.35;;
45650;SDS011;31365;48.858;8.530;2022-08-30T08:04:09;4.55;;;4.15;;
45650;SDS011;31365;48.858;8.530;2022-08-30T08:06:38;5.93;;;4.60;;
45650;SDS011;31365;48.858;8.530;2022-08-30T08:09:07;7.20;;;5.10;;
45650;SDS011;31365;48.858;8.530;2022-08-30T08:11:36;5.55;;;4.63;;
45650;SDS011;31365;48.858;8.530;2022-08-30T08:14:06;6.05;;;5.10;;
45650;SDS011;31365;48.858;8.530;2022-08-30T08:16:36;11.15;;;5.22;;
45650;SDS011;31365;48.858;8.530;2022-08-30T08:19:05;5.18;;;4.30;;
45650;SDS011;31365;48.858;8.530;2022-08-30T08:21:35;5.90;;;4.50;;
45650;SDS011;31365;48.858;8.530;2022-08-30T08:24:04;5.40;;;4.30;;
45650;SDS011;31365;48.858;8.530;2022-08-30T08:26:33;5.55;;;4.78;;
45650;SDS011;31365;48.858;8.530;2022-08-30T08:29:03;8.13;;;4.57;;
45650;SDS011;31365;48.858;8.530;2022-08-30T08:31:34;8.80;;;4.93;;
45650;SDS011;31365;48.858;8.530;2022-08-30T08:34:05;5.22;;;4.43;;
45650;SDS011;31365;48.858;8.530;2022-08-30T08:36:34;4.30;;;3.75;;
45650;SDS011;31365;48.858;8.530;2022-08-30T08:39:03;5.72;;;4.15;;
45650;SDS011;31365;48.858;8.530;2022-08-30T08:41:38;6.20;;;4.60;;
45650;SDS011;31365;48.858;8.530;2022-08-30T08:44:22;4.43;;;4.13;;
45650;SDS011;31365;48.858;8.530;2022-08-30T08:47:08;5.38;;;4.38;;
45650;SDS011;31365;48.858;8.530;2022-08-30T08:49:42;4.75;;;4.35;;
45650;SDS011;31365;48.858;8.530;2022-08-30T08:52:18;8.13;;;4.38;;
45650;SDS011;31365;48.858;8.530;2022-08-30T08:55:14;5.97;;;4.30;;
45650;SDS011;31365;48.858;8.530;2022-08-30T08:57:47;9.10;;;4.60;;
45650;SDS011;31365;48.858;8.530;2022-08-30T09:00:17;7.38;;;4.10;;
45650;SDS011;31365;48.858;8.530;2022-08-30T09:02:50;3.90;;;3.53;;
45650;SDS011;31365;48.858;8.530;2022-08-30T09:05:26;4.50;;;4.00;;
45650;SDS011;31365;48.858;8.530;2022-08-30T09:08:06;7.97;;;4.22;;
45650;SDS011;31365;48.858;8.530;2022-08-30T09:10:42;4.30;;;3.90;;
45650;SDS011;31365;48.858;8.530;2022-08-30T09:13:24;4.78;;;4.38;;
45650;SDS011;31365;48.858;8.530;2022-08-30T09:15:54;3.80;;;3.45;;
45650;SDS011;31365;48.858;8.530;2022-08-30T09:21:21;3.72;;;3.42;;
45650;SDS011;31365;48.858;8.530;2022-08-30T09:23:54;5.18;;;4.03;;
45650;SDS011;31365;48.858;8.530;2022-08-30T09:26:29;4.10;;;3.25;;
45650;SDS011;31365;48.858;8.530;2022-08-30T09:29:01;5.05;;;3.58;;
45650;SDS011;31365;48.858;8.530;2022-08-30T09:31:32;4.25;;;3.92;;
45650;SDS011;31365;48.858;8.530;2022-08-30T09:34:29;4.00;;;3.70;;
45650;SDS011;31365;48.858;8.530;2022-08-30T09:37:00;4.07;;;3.63;;
45650;SDS011;31365;48.858;8.530;2022-08-30T09:39:30;7.45;;;3.78;;
45650;SDS011;31365;48.858;8.530;2022-08-30T09:42:09;6.20;;;3.85;;
45650;SDS011;31365;48.858;8.530;2022-08-30T09:44:45;5.80;;;4.22;;
45650;SDS011;31365;48.858;8.530;2022-08-30T09:47:17;5.45;;;3.88;;
45650;SDS011;31365;48.858;8.530;2022-08-30T09:49:53;5.82;;;3.90;;
45650;SDS011;31365;48.858;8.530;2022-08-30T09:52:33;5.00;;;3.92;;
45650;SDS011;31365;48.858;8.530;2022-08-30T09:55:33;3.80;;;3.50;;
45650;SDS011;31365;48.858;8.530;2022-08-30T09:58:26;4.05;;;3.60;;
45650;SDS011;31365;48.858;8.530;2022-08-30T10:01:08;5.07;;;3.97;;
45650;SDS011;31365;48.858;8.530;2022-08-30T10:03:42;4.00;;;3.60;;
45650;SDS011;31365;48.858;8.530;2022-08-30T10:06:26;3.75;;;3.45;;
45650;SDS011;31365;48.858;8.530;2022-08-30T10:09:10;4.93;;;4.18;;
45650;SDS011;31365;48.858;8.530;2022-08-30T10:11:53;5.55;;;4.22;;
45650;SDS011;31365;48.858;8.530;2022-08-30T10:14:46;5.68;;;4.10;;
45650;SDS011;31365;48.858;8.530;2022-08-30T10:17:27;5.00;;;4.00;;
45650;SDS011;31365;48.858;8.530;2022-08-30T10:20:10;4.40;;;4.00;;
45650;SDS011;31365;48.858;8.530;2022-08-30T10:22:51;4.80;;;3.90;;
45650;SDS011;31365;48.858;8.530;2022-08-30T10:25:28;4.85;;;4.20;;
45650;SDS011;31365;48.858;8.530;2022-08-30T10:28:03;6.07;;;3.85;;
45650;SDS011;31365;48.858;8.530;2022-08-30T10:30:41;4.53;;;3.63;;
45650;SDS011;31365;48.858;8.530;2022-08-30T10:33:23;4.20;;;3.80;;
45650;SDS011;31365;48.858;8.530;2022-08-30T10:35:58;5.35;;;4.43;;
45650;SDS011;31365;48.858;8.530;2022-08-30T10:38:37;5.80;;;3.77;;
45650;SDS011;31365;48.858;8.530;2022-08-30T10:41:11;5.73;;;4.27;;
45650;SDS011;31365;48.858;8.530;2022-08-30T10:43:53;4.88;;;3.97;;
45650;SDS011;31365;48.858;8.530;2022-08-30T10:46:31;4.20;;;3.80;;
45650;SDS011;31365;48.858;8.530;2022-08-30T10:49:09;5.00;;;3.75;;
45650;SDS011;31365;48.858;8.530;2022-08-30T10:51:46;5.22;;;4.10;;
45650;SDS011;31365;48.858;8.530;2022-08-30T10:54:29;4.53;;;3.57;;
45650;SDS011;31365;48.858;8.530;2022-08-30T10:57:05;4.75;;;4.00;;
45650;SDS011;31365;48.858;8.530;2022-08-30T10:59:33;4.93;;;4.30;;
45650;SDS011;31365;48.858;8.530;2022-08-30T11:02:18;4.27;;;3.90;;
45650;SDS011;31365;48.858;8.530;2022-08-30T11:05:41;4.53;;;4.10;;
45650;SDS011;31365;48.858;8.530;2022-08-30T11:08:44;4.53;;;3.70;;
45650;SDS011;31365;48.858;8.530;2022-08-30T11:14:59;5.05;;;3.90;;
45650;SDS011;31365;48.858;8.530;2022-08-30T11:17:44;4.82;;;4.07;;
45650;SDS011;31365;48.858;8.530;2022-08-30T11:20:27;4.30;;;3.90;;
45650;SDS011;31365;48.858;8.530;2022-08-30T11:25:59;4.70;;;4.30;;
45650;SDS011;31365;48.858;8.530;2022-08-30T11:31:35;4.43;;;4.03;;
45650;SDS011;31365;48.858;8.530;2022-08-30T11:34:12;8.97;;;4.77;;
45650;SDS011;31365;48.858;8.530;2022-08-30T11:37:35;5.55;;;3.90;;
45650;SDS011;31365;48.858;8.530;2022-08-30T11:40:42;4.30;;;3.63;;
45650;SDS011;31365;48.858;8.530;2022-08-30T11:46:35;5.43;;;3.97;;
45650;SDS011;31365;48.858;8.530;2022-08-30T11:52:24;4.90;;;3.67;;
45650;SDS011;31365;48.858;8.530;2022-08-30T11:55:21;4.45;;;4.00;;
45650;SDS011;31365;48.858;8.530;2022-08-30T11:58:24;6.55;;;3.88;;
45650;SDS011;31365;48.858;8.530;2022-08-30T12:01:21;3.97;;;3.58;;
45650;SDS011;31365;48.858;8.530;2022-08-30T12:04:30;4.25;;;3.83;;
45650;SDS011;31365;48.858;8.530;2022-08-30T12:07:04;4.28;;;3.88;;
45650;SDS011;31365;48.858;8.530;2022-08-30T12:12:51;4.38;;;3.67;;
45650;SDS011;31365;48.858;8.530;2022-08-30T12:18:24;3.90;;;3.45;;
45650;SDS011;31365;48.858;8.530;2022-08-30T12:21:11;4.05;;;3.30;;
45650;SDS011;31365;48.858;8.530;2022-08-30T12:23:59;5.10;;;3.63;;
45650;SDS011;31365;48.858;8.530;2022-08-30T12:26:33;3.78;;;3.45;;
45650;SDS011;31365;48.858;8.530;2022-08-30T12:29:11;4.72;;;3.90;;
45650;SDS011;31365;48.858;8.530;2022-08-30T12:31:48;3.78;;;3.47;;
45650;SDS011;31365;48.858;8.530;2022-08-30T12:34:24;3.92;;;3.63;;
45650;SDS011;31365;48.858;8.530;2022-08-30T12:36:57;5.75;;;3.83;;
45650;SDS011;31365;48.858;8.530;2022-08-30T12:39:31;4.40;;;3.92;;
45650;SDS011;31365;48.858;8.530;2022-08-30T12:42:10;5.07;;;3.80;;
45650;SDS011;31365;48.858;8.530;2022-08-30T12:44:45;7.65;;;4.00;;
45650;SDS011;31365;48.858;8.530;2022-08-30T12:47:19;5.32;;;3.70;;
45650;SDS011;31365;48.858;8.530;2022-08-30T12:49:53;3.92;;;3.63;;
45650;SDS011;31365;48.858;8.530;2022-08-30T12:52:27;3.63;;;3.33;;
45650;SDS011;31365;48.858;8.530;2022-08-30T12:55:07;3.63;;;3.30;;
45650;SDS011;31365;48.858;8.530;2022-08-30T12:57:54;3.70;;;3.10;;
45650;SDS011;31365;48.858;8.530;2022-08-30T13:00:27;3.55;;;3.22;;
45650;SDS011;31365;48.858;8.530;2022-08-30T13:03:01;3.38;;;3.10;;
45650;SDS011;31365;48.858;8.530;2022-08-30T13:05:44;4.10;;;3.70;;
45650;SDS011;31365;48.858;8.530;2022-08-30T13:08:19;8.52;;;3.60;;
45650;SDS011;31365;48.858;8.530;2022-08-30T13:10:53;4.40;;;3.20;;
45650;SDS011;31365;48.858;8.530;2022-08-30T13:13:35;4.07;;;2.90;;
45650;SDS011;31365;48.858;8.530;2022-08-30T13:19:17;4.05;;;3.17;;
45650;SDS011;31365;48.858;8.530;2022-08-30T13:21:58;3.95;;;3.53;;
45650;SDS011;31365;48.858;8.530;2022-08-30T13:24:28;3.97;;;3.17;;
45650;SDS011;31365;48.858;8.530;2022-08-30T13:27:00;3.60;;;3.33;;
45650;SDS011;31365;48.858;8.530;2022-08-30T13:29:35;4.55;;;4.15;;
45650;SDS011;31365;48.858;8.530;2022-08-30T13:32:04;4.20;;;3.58;;
45650;SDS011;31365;48.858;8.530;2022-08-30T13:34:34;6.72;;;3.10;;
45650;SDS011;31365;48.858;8.530;2022-08-30T13:37:02;5.72;;;3.55;;
45650;SDS011;31365;48.858;8.530;2022-08-30T13:39:53;5.30;;;3.17;;
45650;SDS011;31365;48.858;8.530;2022-08-30T13:42:24;3.88;;;3.55;;
45650;SDS011;31365;48.858;8.530;2022-08-30T13:45:01;5.07;;;3.33;;
45650;SDS011;31365;48.858;8.530;2022-08-30T13:47:51;4.18;;;3.22;;
45650;SDS011;31365;48.858;8.530;2022-08-30T13:50:21;5.65;;;2.95;;
45650;SDS011;31365;48.858;8.530;2022-08-30T13:52:52;3.17;;;2.85;;
45650;SDS011;31365;48.858;8.530;2022-08-30T13:55:21;4.68;;;3.15;;
45650;SDS011;31365;48.858;8.530;2022-08-30T13:57:50;3.25;;;2.95;;
45650;SDS011;31365;48.858;8.530;2022-08-30T14:00:21;5.88;;;3.30;;
45650;SDS011;31365;48.858;8.530;2022-08-30T14:02:52;4.18;;;3.42;;
45650;SDS011;31365;48.858;8.530;2022-08-30T14:05:27;4.07;;;3.00;;
45650;SDS011;31365;48.858;8.530;2022-08-30T14:08:20;3.75;;;3.45;;
45650;SDS011;31365;48.858;8.530;2022-08-30T14:11:14;4.25;;;3.13;;
45650;SDS011;31365;48.858;8.530;2022-08-30T14:13:48;2.90;;;2.53;;
45650;SDS011;31365;48.858;8.530;2022-08-30T14:16:39;3.90;;;3.00;;
45650;SDS011;31365;48.858;8.530;2022-08-30T14:19:12;4.63;;;3.15;;
45650;SDS011;31365;48.858;8.530;2022-08-30T14:21:44;3.30;;;3.10;;
45650;SDS011;31365;48.858;8.530;2022-08-30T14:24:14;4.75;;;3.40;;
45650;SDS011;31365;48.858;8.530;2022-08-30T14:26:47;3.22;;;3.00;;
45650;SDS011;31365;48.858;8.530;2022-08-30T14:29:18;4.57;;;2.90;;
45650;SDS011;31365;48.858;8.530;2022-08-30T14:31:50;3.78;;;3.00;;
45650;SDS011;31365;48.858;8.530;2022-08-30T14:34:19;3.58;;;3.20;;
45650;SDS011;31365;48.858;8.530;2022-08-30T14:36:50;8.75;;;3.53;;
45650;SDS011;31365;48.858;8.530;2022-08-30T14:39:19;3.72;;;3.42;;
45650;SDS011;31365;48.858;8.530;2022-08-30T14:41:51;3.47;;;3.13;;
45650;SDS011;31365;48.858;8.530;2022-08-30T14:44:22;5.00;;;2.97;;
45650;SDS011;31365;48.858;8.530;2022-08-30T14:46:52;2.88;;;2.67;;
45650;SDS011;31365;48.858;8.530;2022-08-30T14:49:21;5.88;;;3.10;;
45650;SDS011;31365;48.858;8.530;2022-08-30T14:51:53;4.18;;;3.00;;
45650;SDS011;31365;48.858;8.530;2022-08-30T14:54:23;4.78;;;3.45;;
45650;SDS011;31365;48.858;8.530;2022-08-30T14:56:54;3.50;;;3.20;;
45650;SDS011;31365;48.858;8.530;2022-08-30T14:59:24;4.32;;;3.22;;
45650;SDS011;31365;48.858;8.530;2022-08-30T15:01:54;3.83;;;3.47;;
45650;SDS011;31365;48.858;8.530;2022-08-30T15:04:22;3.60;;;3.30;;
45650;SDS011;31365;48.858;8.530;2022-08-30T15:06:53;4.53;;;3.50;;
45650;SDS011;31365;48.858;8.530;2022-08-30T15:09:22;3.47;;;2.83;;
45650;SDS011;31365;48.858;8.530;2022-08-30T15:11:52;6.15;;;3.50;;
45650;SDS011;31365;48.858;8.530;2022-08-30T15:14:24;3.90;;;2.92;;
45650;SDS011;31365;48.858;8.530;2022-08-30T15:16:53;3.63;;;3.33;;
45650;SDS011;31365;48.858;8.530;2022-08-30T15:19:24;3.33;;;3.13;;
45650;SDS011;31365;48.858;8.530;2022-08-30T15:21:57;6.10;;;3.70;;
45650;SDS011;31365;48.858;8.530;2022-08-30T15:24:28;3.72;;;3.00;;
45650;SDS011;31365;48.858;8.530;2022-08-30T15:26:58;3.35;;;3.03;;
45650;SDS011;31365;48.858;8.530;2022-08-30T15:29:27;4.32;;;3.17;;
45650;SDS011;31365;48.858;8.530;2022-08-30T15:31:57;3.58;;;3.28;;
45650;SDS011;31365;48.858;8.530;2022-08-30T15:34:30;4.82;;;3.55;;
45650;SDS011;31365;48.858;8.530;2022-08-30T15:37:01;3.97;;;3.58;;
45650;SDS011;31365;48.858;8.530;2022-08-30T15:39:30;4.63;;;3.50;;
45650;SDS011;31365;48.858;8.530;2022-08-30T15:41:58;6.43;;;3.40;;
45650;SDS011;31365;48.858;8.530;2022-08-30T15:44:27;3.83;;;3.25;;
45650;SDS011;31365;48.858;8.530;2022-08-30T15:46:57;4.13;;;3.75;;
45650;SDS011;31365;48.858;8.530;2022-08-30T15:49:26;4.13;;;3.72;;
45650;SDS011;31365;48.858;8.530;2022-08-30T15:51:55;4.15;;;3.30;;
45650;SDS011;31365;48.858;8.530;2022-08-30T15:54:33;4.95;;;3.33;;